DAL1832 KLAX-PHNL
Flight info
| Callsign | DAL1832 |
|---|---|
| Flight time | N/A |
| Altitude | 38000 |
| Route | SUMMR2 DINTY DUETS R576 DUSAC/N0464F400 R576 DENNS MAGGI3 |
| Aircraft | A339/H-SADE1E2E3GHIJ3J5M1P2RWXY/LB2D1 |
Departure
| Time | 2026-05-05 22:27 |
|---|---|
| Airport | Los Angeles International Airport (KLAX) |
Arrival
| Time | N/A |
|---|---|
| Airport | Daniel K. Inouye International Airport (PHNL) |
| Time | Latitude | Longitude | Altitude | Speed | Heading |
|---|---|---|---|---|---|
| 2026-05-05 21:42 | 33.94541 | -118.40784 | 128 ft | 0 kts | 96° |
| 2026-05-05 21:43 | 33.94541 | -118.40785 | 128 ft | 0 kts | 96° |
| 2026-05-05 21:49 | 33.94541 | -118.40786 | 128 ft | 0 kts | 96° |
| 2026-05-05 21:55 | 33.94541 | -118.40787 | 131 ft | 0 kts | 96° |
| 2026-05-05 22:01 | 33.94541 | -118.40788 | 131 ft | 0 kts | 96° |
| 2026-05-05 22:08 | 33.94541 | -118.40789 | 141 ft | 0 kts | 96° |
| 2026-05-05 22:14 | 33.94541 | -118.40790 | 131 ft | 0 kts | 96° |
| 2026-05-05 22:17 | 33.94542 | -118.40793 | 126 ft | 2 kts | 96° |
| 2026-05-05 22:18 | 33.94543 | -118.40809 | 129 ft | 2 kts | 96° |
| 2026-05-05 22:18 | 33.94545 | -118.40825 | 128 ft | 2 kts | 96° |
| 2026-05-05 22:18 | 33.94546 | -118.40842 | 127 ft | 2 kts | 93° |
| 2026-05-05 22:18 | 33.94547 | -118.40859 | 131 ft | 2 kts | 85° |
| 2026-05-05 22:19 | 33.94547 | -118.40871 | 131 ft | 1 kts | 76° |
| 2026-05-05 22:19 | 33.94547 | -118.40881 | 131 ft | 1 kts | 46° |
| 2026-05-05 22:19 | 33.94543 | -118.40889 | 127 ft | 0 kts | 19° |
| 2026-05-05 22:21 | 33.94549 | -118.40891 | 131 ft | 2 kts | 2° |
| 2026-05-05 22:21 | 33.94565 | -118.40893 | 123 ft | 2 kts | 355° |
| 2026-05-05 22:22 | 33.94600 | -118.40897 | 128 ft | 9 kts | 355° |
| 2026-05-05 22:22 | 33.94672 | -118.40907 | 129 ft | 11 kts | 352° |
| 2026-05-05 22:22 | 33.94744 | -118.40893 | 126 ft | 11 kts | 40° |
| 2026-05-05 22:22 | 33.94762 | -118.40807 | 124 ft | 11 kts | 82° |
| 2026-05-05 22:23 | 33.94771 | -118.40710 | 131 ft | 12 kts | 83° |
| 2026-05-05 22:23 | 33.94782 | -118.40602 | 131 ft | 14 kts | 83° |
| 2026-05-05 22:23 | 33.94795 | -118.40479 | 131 ft | 17 kts | 82° |
| 2026-05-05 22:23 | 33.94808 | -118.40359 | 128 ft | 11 kts | 82° |
| 2026-05-05 22:24 | 33.94848 | -118.40293 | 122 ft | 9 kts | 17° |
| 2026-05-05 22:24 | 33.94895 | -118.40245 | 125 ft | 10 kts | 65° |
| 2026-05-05 22:24 | 33.94909 | -118.40158 | 131 ft | 2 kts | 81° |
| 2026-05-05 22:24 | 33.94914 | -118.40119 | 127 ft | 7 kts | 82° |
| 2026-05-05 22:25 | 33.94922 | -118.40052 | 131 ft | 9 kts | 82° |
| 2026-05-05 22:25 | 33.94932 | -118.39975 | 131 ft | 10 kts | 79° |
| 2026-05-05 22:25 | 33.94975 | -118.39919 | 124 ft | 9 kts | 22° |
| 2026-05-05 22:25 | 33.95028 | -118.39940 | 122 ft | 8 kts | 306° |
| 2026-05-05 22:26 | 33.95036 | -118.40000 | 128 ft | 7 kts | 267° |
| 2026-05-05 22:26 | 33.95035 | -118.40012 | 128 ft | 0 kts | 264° |
| 2026-05-05 22:26 | 33.95034 | -118.40020 | 126 ft | 9 kts | 264° |
| 2026-05-05 22:26 | 33.94990 | -118.40456 | 123 ft | 94 kts | 263° |
| 2026-05-05 22:27 | 33.94881 | -118.41531 | 162 ft | 159 kts | 262° |
| 2026-05-05 22:27 | 33.94743 | -118.42918 | 825 ft | 169 kts | 261° |
| 2026-05-05 22:27 | 33.94597 | -118.44377 | 1696 ft | 183 kts | 262° |
| 2026-05-05 22:27 | 33.94421 | -118.45994 | 2361 ft | 206 kts | 262° |
| 2026-05-05 22:28 | 33.94297 | -118.47772 | 2894 ft | 221 kts | 267° |
| 2026-05-05 22:28 | 33.94244 | -118.49720 | 3139 ft | 246 kts | 268° |
| 2026-05-05 22:28 | 33.94145 | -118.51814 | 3742 ft | 252 kts | 264° |
| 2026-05-05 22:28 | 33.93980 | -118.53959 | 4267 ft | 261 kts | 264° |
| 2026-05-05 22:29 | 33.93812 | -118.56132 | 4915 ft | 265 kts | 265° |
| 2026-05-05 22:29 | 33.93637 | -118.58358 | 5511 ft | 268 kts | 265° |
| 2026-05-05 22:29 | 33.93458 | -118.60587 | 6138 ft | 272 kts | 266° |
| 2026-05-05 22:29 | 33.93281 | -118.62861 | 6743 ft | 275 kts | 266° |
| 2026-05-05 22:30 | 33.93098 | -118.65168 | 7372 ft | 279 kts | 266° |
| 2026-05-05 22:30 | 33.92916 | -118.67492 | 8089 ft | 278 kts | 266° |
| 2026-05-05 22:30 | 33.92729 | -118.69837 | 8684 ft | 283 kts | 268° |
| 2026-05-05 22:30 | 33.92545 | -118.72203 | 9315 ft | 286 kts | 267° |
| 2026-05-05 22:31 | 33.92358 | -118.74610 | 9961 ft | 289 kts | 268° |
| 2026-05-05 22:31 | 33.92233 | -118.76216 | 10267 ft | 295 kts | 268° |
| 2026-05-05 22:31 | 33.91970 | -118.79655 | 10491 ft | 320 kts | 267° |
| 2026-05-05 22:31 | 33.91759 | -118.82391 | 10704 ft | 335 kts | 267° |
| 2026-05-05 22:32 | 33.91725 | -118.85203 | 11223 ft | 336 kts | 275° |
| 2026-05-05 22:32 | 33.91829 | -118.88007 | 11809 ft | 339 kts | 274° |
| 2026-05-05 22:32 | 33.91918 | -118.90849 | 12470 ft | 338 kts | 274° |
| 2026-05-05 22:32 | 33.92001 | -118.93680 | 13027 ft | 333 kts | 274° |
| 2026-05-05 22:33 | 33.92095 | -118.96444 | 13021 ft | 333 kts | 274° |
| 2026-05-05 22:33 | 33.92153 | -118.98299 | 13098 ft | 338 kts | 274° |
| 2026-05-05 22:33 | 33.92506 | -119.01127 | 13471 ft | 344 kts | 286° |
| 2026-05-05 22:33 | 33.93363 | -119.03807 | 14078 ft | 344 kts | 297° |
| 2026-05-05 22:34 | 33.94606 | -119.06257 | 14672 ft | 343 kts | 303° |
| 2026-05-05 22:34 | 33.95730 | -119.08384 | 15027 ft | 348 kts | 302° |